sensor_id;sensor_type;location;lat;lon;timestamp;P1;P2;P0
82817;PMS5003;72572;46.824;-71.222;2024-02-14T00:02:19;9.5;7.3;4.2
82817;PMS5003;72572;46.824;-71.222;2024-02-14T00:04:43;6.2;6;4.25
82817;PMS5003;72572;46.824;-71.222;2024-02-14T00:07:10;8.1;7.57;3.71
82817;PMS5003;72572;46.824;-71.222;2024-02-14T00:09:34;12;8.8;4
82817;PMS5003;72572;46.824;-71.222;2024-02-14T00:12:00;4.52;4.52;2.95
82817;PMS5003;72572;46.824;-71.222;2024-02-14T00:14:25;6.55;5.5;2.82
82817;PMS5003;72572;46.824;-71.222;2024-02-14T00:16:51;7.55;7.55;3.4
82817;PMS5003;72572;46.824;-71.222;2024-02-14T00:19:17;6.6;4.25;2.2
82817;PMS5003;72572;46.824;-71.222;2024-02-14T00:21:40;6.81;4.95;2
82817;PMS5003;72572;46.824;-71.222;2024-02-14T00:24:06;5.43;4.9;3.29
82817;PMS5003;72572;46.824;-71.222;2024-02-14T00:26:32;8.9;8.6;4
82817;PMS5003;72572;46.824;-71.222;2024-02-14T00:28:57;4.2;3.5;2.8
82817;PMS5003;72572;46.824;-71.222;2024-02-14T00:31:24;7.76;7.24;4
82817;PMS5003;72572;46.824;-71.222;2024-02-14T00:33:47;7.1;7;4
82817;PMS5003;72572;46.824;-71.222;2024-02-14T00:36:13;9.1;7.33;4
82817;PMS5003;72572;46.824;-71.222;2024-02-14T00:38:40;11;11;7.6
82817;PMS5003;72572;46.824;-71.222;2024-02-14T00:41:02;25.4;19.75;12.95
82817;PMS5003;72572;46.824;-71.222;2024-02-14T00:43:28;25.2;21.35;13.7
82817;PMS5003;72572;46.824;-71.222;2024-02-14T00:45:53;16.35;14.5;8.85
82817;PMS5003;72572;46.824;-71.222;2024-02-14T00:48:20;17.62;15.52;8.19
82817;PMS5003;72572;46.824;-71.222;2024-02-14T00:50:47;14.7;12.35;6.9
82817;PMS5003;72572;46.824;-71.222;2024-02-14T00:53:10;10.71;10.24;4.05
82817;PMS5003;72572;46.824;-71.222;2024-02-14T00:55:36;7.8;7.55;4.95
82817;PMS5003;72572;46.824;-71.222;2024-02-14T00:58:00;8;7.1;4.05
82817;PMS5003;72572;46.824;-71.222;2024-02-14T01:00:25;8.95;8.1;5
82817;PMS5003;72572;46.824;-71.222;2024-02-14T01:02:51;8.81;7.1;4.76
82817;PMS5003;72572;46.824;-71.222;2024-02-14T01:05:17;9.48;9.48;6.71
82817;PMS5003;72572;46.824;-71.222;2024-02-14T01:07:43;10.9;10.6;7.1
82817;PMS5003;72572;46.824;-71.222;2024-02-14T01:10:09;12.25;8.3;4.8
82817;PMS5003;72572;46.824;-71.222;2024-02-14T01:12:33;11.35;11.35;7.8
82817;PMS5003;72572;46.824;-71.222;2024-02-14T01:14:59;9.9;8.35;5.55
82817;PMS5003;72572;46.824;-71.222;2024-02-14T01:17:24;8.75;7.9;5
82817;PMS5003;72572;46.824;-71.222;2024-02-14T01:19:58;13.9;11.29;8.52
82817;PMS5003;72572;46.824;-71.222;2024-02-14T01:22:23;12.29;10.9;5.57
82817;PMS5003;72572;46.824;-71.222;2024-02-14T01:24:48;17.65;16.05;10.7
82817;PMS5003;72572;46.824;-71.222;2024-02-14T01:27:14;8.81;8.67;5.48
82817;PMS5003;72572;46.824;-71.222;2024-02-14T01:29:37;11.1;10.75;7.4
82817;PMS5003;72572;46.824;-71.222;2024-02-14T01:32:03;21.35;17.85;11.55
82817;PMS5003;72572;46.824;-71.222;2024-02-14T01:34:29;21.5;18.9;12
82817;PMS5003;72572;46.824;-71.222;2024-02-14T01:36:53;19.1;15.62;11.67
82817;PMS5003;72572;46.824;-71.222;2024-02-14T01:39:19;21.65;19;14.2
82817;PMS5003;72572;46.824;-71.222;2024-02-14T01:41:46;19.1;17;11.6
82817;PMS5003;72572;46.824;-71.222;2024-02-14T01:44:11;16.6;12;8.25
82817;PMS5003;72572;46.824;-71.222;2024-02-14T01:46:34;14.6;12.9;8.35
82817;PMS5003;72572;46.824;-71.222;2024-02-14T01:49:02;15.8;15.05;10.7
82817;PMS5003;72572;46.824;-71.222;2024-02-14T01:51:27;20.22;16.44;10.44
82817;PMS5003;72572;46.824;-71.222;2024-02-14T01:53:52;16.43;15.05;9
82817;PMS5003;72572;46.824;-71.222;2024-02-14T01:56:18;16.75;13.65;8
82817;PMS5003;72572;46.824;-71.222;2024-02-14T01:58:41;18.3;16.05;10.3
82817;PMS5003;72572;46.824;-71.222;2024-02-14T02:01:06;18.05;15.55;9.15
82817;PMS5003;72572;46.824;-71.222;2024-02-14T02:03:34;11.65;9.4;5.55
82817;PMS5003;72572;46.824;-71.222;2024-02-14T02:05:57;15.1;13;8.55
82817;PMS5003;72572;46.824;-71.222;2024-02-14T02:08:23;14.4;13.55;7.7
82817;PMS5003;72572;46.824;-71.222;2024-02-14T02:10:50;13.1;12.62;7.81
82817;PMS5003;72572;46.824;-71.222;2024-02-14T02:13:16;16.3;14.05;8.35
82817;PMS5003;72572;46.824;-71.222;2024-02-14T02:15:40;18.1;16.6;10.6
82817;PMS5003;72572;46.824;-71.222;2024-02-14T02:18:07;10.55;9.1;6
82817;PMS5003;72572;46.824;-71.222;2024-02-14T02:20:31;10.1;9.55;5.45
82817;PMS5003;72572;46.824;-71.222;2024-02-14T02:22:55;9.75;9.75;6.15
82817;PMS5003;72572;46.824;-71.222;2024-02-14T02:25:20;10.55;8.4;4.95
82817;PMS5003;72572;46.824;-71.222;2024-02-14T02:27:46;4.71;4.71;2.67
82817;PMS5003;72572;46.824;-71.222;2024-02-14T02:30:11;6.85;6.85;5
82817;PMS5003;72572;46.824;-71.222;2024-02-14T02:32:37;1.67;1.67;1
82817;PMS5003;72572;46.824;-71.222;2024-02-14T02:35:03;4.9;3.8;1
82817;PMS5003;72572;46.824;-71.222;2024-02-14T02:37:27;1.8;1.8;0.65
82817;PMS5003;72572;46.824;-71.222;2024-02-14T02:39:53;2.2;2.2;0.95
82817;PMS5003;72572;46.824;-71.222;2024-02-14T02:42:20;2.2;2;1
82817;PMS5003;72572;46.824;-71.222;2024-02-14T02:44:46;1;1;0.9
82817;PMS5003;72572;46.824;-71.222;2024-02-14T02:47:10;2.75;2.15;1
82817;PMS5003;72572;46.824;-71.222;2024-02-14T02:49:36;2.3;2.3;1
82817;PMS5003;72572;46.824;-71.222;2024-02-14T02:52:00;4.8;4.8;2.5
82817;PMS5003;72572;46.824;-71.222;2024-02-14T02:54:26;3.8;2.4;1
82817;PMS5003;72572;46.824;-71.222;2024-02-14T02:56:51;1.1;1.1;0.1
82817;PMS5003;72572;46.824;-71.222;2024-02-14T02:59:16;1.7;1.1;0.25
82817;PMS5003;72572;46.824;-71.222;2024-02-14T03:01:42;1.57;1.57;1
82817;PMS5003;72572;46.824;-71.222;2024-02-14T03:04:08;2;1.8;0.95
82817;PMS5003;72572;46.824;-71.222;2024-02-14T03:06:34;0.5;0.5;0.35
82817;PMS5003;72572;46.824;-71.222;2024-02-14T03:08:58;1.55;1.55;1
82817;PMS5003;72572;46.824;-71.222;2024-02-14T03:11:23;0.7;0.7;0.4
82817;PMS5003;72572;46.824;-71.222;2024-02-14T03:13:47;9.8;6.6;4.3
82817;PMS5003;72572;46.824;-71.222;2024-02-14T03:16:14;1.1;1.1;0.55
82817;PMS5003;72572;46.824;-71.222;2024-02-14T03:18:39;2.95;2.14;1.86
82817;PMS5003;72572;46.824;-71.222;2024-02-14T03:21:04;0.4;0.4;0.25
82817;PMS5003;72572;46.824;-71.222;2024-02-14T03:23:31;1.7;1.1;0.1
82817;PMS5003;72572;46.824;-71.222;2024-02-14T03:25:55;1.35;1.35;0.75
82817;PMS5003;72572;46.824;-71.222;2024-02-14T03:28:21;1.1;1.1;0.1
82817;PMS5003;72572;46.824;-71.222;2024-02-14T03:30:47;1;1;0
82817;PMS5003;72572;46.824;-71.222;2024-02-14T03:33:10;1.2;1.2;0.35
82817;PMS5003;72572;46.824;-71.222;2024-02-14T03:35:38;0.14;0.14;0
82817;PMS5003;72572;46.824;-71.222;2024-02-14T03:38:04;2.2;2.2;0.7
82817;PMS5003;72572;46.824;-71.222;2024-02-14T03:40:26;3.4;2.55;1.1
82817;PMS5003;72572;46.824;-71.222;2024-02-14T03:42:54;1.95;0.75;0
82817;PMS5003;72572;46.824;-71.222;2024-02-14T03:45:17;0.7;0.6;0
82817;PMS5003;72572;46.824;-71.222;2024-02-14T03:47:44;3.65;1.35;0.95
82817;PMS5003;72572;46.824;-71.222;2024-02-14T03:50:09;1;1;1
82817;PMS5003;72572;46.824;-71.222;2024-02-14T03:52:33;0.9;0.81;0.67
82817;PMS5003;72572;46.824;-71.222;2024-02-14T03:55:00;0.7;0.7;0.1
82817;PMS5003;72572;46.824;-71.222;2024-02-14T03:57:26;0.25;0.25;0
82817;PMS5003;72572;46.824;-71.222;2024-02-14T03:59:49;0.1;0.1;0
82817;PMS5003;72572;46.824;-71.222;2024-02-14T04:02:15;0.2;0.1;0
82817;PMS5003;72572;46.824;-71.222;2024-02-14T04:04:41;0;0;0
82817;PMS5003;72572;46.824;-71.222;2024-02-14T04:07:06;1;1;0.1
82817;PMS5003;72572;46.824;-71.222;2024-02-14T04:09:32;1.57;0.43;0
82817;PMS5003;72572;46.824;-71.222;2024-02-14T04:11:57;1;1;0.25
82817;PMS5003;72572;46.824;-71.222;2024-02-14T04:14:23;0;0;0
82817;PMS5003;72572;46.824;-71.222;2024-02-14T04:16:49;0;0;0
82817;PMS5003;72572;46.824;-71.222;2024-02-14T04:19:14;0.1;0;0
82817;PMS5003;72572;46.824;-71.222;2024-02-14T04:21:39;0;0;0
82817;PMS5003;72572;46.824;-71.222;2024-02-14T04:24:04;0.5;0.2;0
82817;PMS5003;72572;46.824;-71.222;2024-02-14T04:26:30;0;0;0
82817;PMS5003;72572;46.824;-71.222;2024-02-14T04:28:56;0;0;0
82817;PMS5003;72572;46.824;-71.222;2024-02-14T04:31:20;0.1;0.1;0
82817;PMS5003;72572;46.824;-71.222;2024-02-14T04:33:44;0;0;0
82817;PMS5003;72572;46.824;-71.222;2024-02-14T04:36:09;1;1;0
82817;PMS5003;72572;46.824;-71.222;2024-02-14T04:38:35;0;0;0
82817;PMS5003;72572;46.824;-71.222;2024-02-14T04:41:01;1;0.35;0
82817;PMS5003;72572;46.824;-71.222;2024-02-14T04:43:26;0;0;0
82817;PMS5003;72572;46.824;-71.222;2024-02-14T04:45:53;1.2;0.7;0
82817;PMS5003;72572;46.824;-71.222;2024-02-14T04:48:17;0;0;0
82817;PMS5003;72572;46.824;-71.222;2024-02-14T04:50:42;0;0;0
82817;PMS5003;72572;46.824;-71.222;2024-02-14T04:53:08;0;0;0
82817;PMS5003;72572;46.824;-71.222;2024-02-14T04:55:34;0;0;0
82817;PMS5003;72572;46.824;-71.222;2024-02-14T04:57:59;1;0;0
82817;PMS5003;72572;46.824;-71.222;2024-02-14T05:00:26;2.05;0.14;0
82817;PMS5003;72572;46.824;-71.222;2024-02-14T05:02:50;0;0;0
82817;PMS5003;72572;46.824;-71.222;2024-02-14T05:05:14;0;0;0
82817;PMS5003;72572;46.824;-71.222;2024-02-14T05:07:40;0;0;0
82817;PMS5003;72572;46.824;-71.222;2024-02-14T05:10:06;0;0;0
82817;PMS5003;72572;46.824;-71.222;2024-02-14T05:12:30;0.1;0;0
82817;PMS5003;72572;46.824;-71.222;2024-02-14T05:14:55;0;0;0
82817;PMS5003;72572;46.824;-71.222;2024-02-14T05:17:23;0;0;0
82817;PMS5003;72572;46.824;-71.222;2024-02-14T05:19:46;0;0;0
82817;PMS5003;72572;46.824;-71.222;2024-02-14T05:22:12;0;0;0
82817;PMS5003;72572;46.824;-71.222;2024-02-14T05:24:38;0;0;0
82817;PMS5003;72572;46.824;-71.222;2024-02-14T05:27:02;1;0;0
82817;PMS5003;72572;46.824;-71.222;2024-02-14T05:29:29;0.8;0;0
82817;PMS5003;72572;46.824;-71.222;2024-02-14T05:31:54;0;0;0
82817;PMS5003;72572;46.824;-71.222;2024-02-14T05:34:18;0.33;0.33;0
82817;PMS5003;72572;46.824;-71.222;2024-02-14T05:36:45;0;0;0
82817;PMS5003;72572;46.824;-71.222;2024-02-14T05:39:09;0;0;0
82817;PMS5003;72572;46.824;-71.222;2024-02-14T05:41:36;0;0;0
82817;PMS5003;72572;46.824;-71.222;2024-02-14T05:43:59;0;0;0
82817;PMS5003;72572;46.824;-71.222;2024-02-14T05:46:25;0;0;0
82817;PMS5003;72572;46.824;-71.222;2024-02-14T05:48:49;0;0;0
82817;PMS5003;72572;46.824;-71.222;2024-02-14T05:51:17;0;0;0
82817;PMS5003;72572;46.824;-71.222;2024-02-14T05:53:41;0;0;0
82817;PMS5003;72572;46.824;-71.222;2024-02-14T05:56:07;0;0;0
82817;PMS5003;72572;46.824;-71.222;2024-02-14T05:58:33;0;0;0
82817;PMS5003;72572;46.824;-71.222;2024-02-14T06:00:59;0;0;0
82817;PMS5003;72572;46.824;-71.222;2024-02-14T06:03:22;0;0;0
82817;PMS5003;72572;46.824;-71.222;2024-02-14T06:05:48;0;0;0
82817;PMS5003;72572;46.824;-71.222;2024-02-14T06:08:14;0;0;0
82817;PMS5003;72572;46.824;-71.222;2024-02-14T06:10:38;0;0;0
82817;PMS5003;72572;46.824;-71.222;2024-02-14T06:13:06;0;0;0
82817;PMS5003;72572;46.824;-71.222;2024-02-14T06:15:29;0;0;0
82817;PMS5003;72572;46.824;-71.222;2024-02-14T06:17:55;0;0;0
82817;PMS5003;72572;46.824;-71.222;2024-02-14T06:20:22;0;0;0
82817;PMS5003;72572;46.824;-71.222;2024-02-14T06:22:46;0;0;0
82817;PMS5003;72572;46.824;-71.222;2024-02-14T06:25:12;0;0;0
82817;PMS5003;72572;46.824;-71.222;2024-02-14T06:27:39;0;0;0
82817;PMS5003;72572;46.824;-71.222;2024-02-14T06:30:02;0;0;0
82817;PMS5003;72572;46.824;-71.222;2024-02-14T06:32:28;0;0;0
82817;PMS5003;72572;46.824;-71.222;2024-02-14T06:34:53;0;0;0
82817;PMS5003;72572;46.824;-71.222;2024-02-14T06:37:17;0;0;0
82817;PMS5003;72572;46.824;-71.222;2024-02-14T06:39:43;0;0;0
82817;PMS5003;72572;46.824;-71.222;2024-02-14T06:42:09;0;0;0
82817;PMS5003;72572;46.824;-71.222;2024-02-14T06:44:34;0;0;0
82817;PMS5003;72572;46.824;-71.222;2024-02-14T06:47:00;0.05;0;0
82817;PMS5003;72572;46.824;-71.222;2024-02-14T06:49:25;0.7;0;0
82817;PMS5003;72572;46.824;-71.222;2024-02-14T06:51:49;0;0;0
82817;PMS5003;72572;46.824;-71.222;2024-02-14T06:54:15;0;0;0
82817;PMS5003;72572;46.824;-71.222;2024-02-14T06:56:42;0;0;0
82817;PMS5003;72572;46.824;-71.222;2024-02-14T06:59:06;1;0.29;0
82817;PMS5003;72572;46.824;-71.222;2024-02-14T07:01:31;0;0;0
82817;PMS5003;72572;46.824;-71.222;2024-02-14T07:03:58;0;0;0
82817;PMS5003;72572;46.824;-71.222;2024-02-14T07:06:22;0.76;0;0
82817;PMS5003;72572;46.824;-71.222;2024-02-14T07:08:48;0;0;0
82817;PMS5003;72572;46.824;-71.222;2024-02-14T07:11:14;0;0;0
82817;PMS5003;72572;46.824;-71.222;2024-02-14T07:13:37;0;0;0
82817;PMS5003;72572;46.824;-71.222;2024-02-14T07:16:04;0.86;0;0
82817;PMS5003;72572;46.824;-71.222;2024-02-14T07:18:28;0;0;0
82817;PMS5003;72572;46.824;-71.222;2024-02-14T07:20:56;0;0;0
82817;PMS5003;72572;46.824;-71.222;2024-02-14T07:23:19;0;0;0
82817;PMS5003;72572;46.824;-71.222;2024-02-14T07:25:45;0.1;0;0
82817;PMS5003;72572;46.824;-71.222;2024-02-14T07:28:11;0;0;0
82817;PMS5003;72572;46.824;-71.222;2024-02-14T07:30:34;0;0;0
82817;PMS5003;72572;46.824;-71.222;2024-02-14T07:33:01;0;0;0
82817;PMS5003;72572;46.824;-71.222;2024-02-14T07:35:26;0;0;0
82817;PMS5003;72572;46.824;-71.222;2024-02-14T07:37:53;0;0;0
82817;PMS5003;72572;46.824;-71.222;2024-02-14T07:40:18;0;0;0
82817;PMS5003;72572;46.824;-71.222;2024-02-14T07:42:43;0;0;0
82817;PMS5003;72572;46.824;-71.222;2024-02-14T07:45:06;0;0;0
82817;PMS5003;72572;46.824;-71.222;2024-02-14T07:47:33;0;0;0
82817;PMS5003;72572;46.824;-71.222;2024-02-14T07:49:58;0;0;0
82817;PMS5003;72572;46.824;-71.222;2024-02-14T07:52:24;0;0;0
82817;PMS5003;72572;46.824;-71.222;2024-02-14T07:54:51;0.1;0;0
82817;PMS5003;72572;46.824;-71.222;2024-02-14T07:57:16;0;0;0
82817;PMS5003;72572;46.824;-71.222;2024-02-14T07:59:38;0;0;0
82817;PMS5003;72572;46.824;-71.222;2024-02-14T08:02:05;0;0;0
82817;PMS5003;72572;46.824;-71.222;2024-02-14T08:04:31;0;0;0
82817;PMS5003;72572;46.824;-71.222;2024-02-14T08:06:55;0;0;0
82817;PMS5003;72572;46.824;-71.222;2024-02-14T08:09:23;0;0;0
82817;PMS5003;72572;46.824;-71.222;2024-02-14T08:11:45;0;0;0
82817;PMS5003;72572;46.824;-71.222;2024-02-14T08:14:11;0;0;0
82817;PMS5003;72572;46.824;-71.222;2024-02-14T08:16:37;0;0;0
82817;PMS5003;72572;46.824;-71.222;2024-02-14T08:19:02;0;0;0
82817;PMS5003;72572;46.824;-71.222;2024-02-14T08:21:34;0;0;0
82817;PMS5003;72572;46.824;-71.222;2024-02-14T08:23:59;0;0;0
82817;PMS5003;72572;46.824;-71.222;2024-02-14T08:26:25;0;0;0
82817;PMS5003;72572;46.824;-71.222;2024-02-14T08:28:50;0;0;0
82817;PMS5003;72572;46.824;-71.222;2024-02-14T08:31:16;0;0;0
82817;PMS5003;72572;46.824;-71.222;2024-02-14T08:33:39;0;0;0
82817;PMS5003;72572;46.824;-71.222;2024-02-14T08:36:06;0;0;0
82817;PMS5003;72572;46.824;-71.222;2024-02-14T08:38:31;0;0;0
82817;PMS5003;72572;46.824;-71.222;2024-02-14T08:40:57;0;0;0
82817;PMS5003;72572;46.824;-71.222;2024-02-14T08:43:21;0;0;0
82817;PMS5003;72572;46.824;-71.222;2024-02-14T08:45:47;0;0;0
82817;PMS5003;72572;46.824;-71.222;2024-02-14T08:48:11;0;0;0
82817;PMS5003;72572;46.824;-71.222;2024-02-14T08:50:37;0;0;0
82817;PMS5003;72572;46.824;-71.222;2024-02-14T08:53:02;0;0;0
82817;PMS5003;72572;46.824;-71.222;2024-02-14T08:55:28;0;0;0
82817;PMS5003;72572;46.824;-71.222;2024-02-14T08:57:54;0;0;0
82817;PMS5003;72572;46.824;-71.222;2024-02-14T09:23:52;0;0;0
82817;PMS5003;72572;46.824;-71.222;2024-02-14T09:24:04;0;0;0
82817;PMS5003;72572;46.824;-71.222;2024-02-14T09:24:13;0;0;0
82817;PMS5003;72572;46.824;-71.222;2024-02-14T09:24:24;0;0;0
82817;PMS5003;72572;46.824;-71.222;2024-02-14T09:24:32;0;0;0
82817;PMS5003;72572;46.824;-71.222;2024-02-14T09:24:42;0;0;0
82817;PMS5003;72572;46.824;-71.222;2024-02-14T09:24:51;0;0;0
82817;PMS5003;72572;46.824;-71.222;2024-02-14T09:25:06;0.1;0;0
82817;PMS5003;72572;46.824;-71.222;2024-02-14T09:27:31;0.86;0.05;0
82817;PMS5003;72572;46.824;-71.222;2024-02-14T09:29:57;1;0.65;0
82817;PMS5003;72572;46.824;-71.222;2024-02-14T09:32:24;0;0;0
82817;PMS5003;72572;46.824;-71.222;2024-02-14T09:34:49;0;0;0
82817;PMS5003;72572;46.824;-71.222;2024-02-14T09:37:14;0.65;0;0
82817;PMS5003;72572;46.824;-71.222;2024-02-14T09:39:40;0.35;0.35;0
82817;PMS5003;72572;46.824;-71.222;2024-02-14T09:42:08;0.5;0.5;0
82817;PMS5003;72572;46.824;-71.222;2024-02-14T09:44:28;2.29;0;0
82817;PMS5003;72572;46.824;-71.222;2024-02-14T09:46:56;0;0;0
82817;PMS5003;72572;46.824;-71.222;2024-02-14T09:49:21;0.2;0;0
82817;PMS5003;72572;46.824;-71.222;2024-02-14T09:51:44;0;0;0
82817;PMS5003;72572;46.824;-71.222;2024-02-14T09:54:11;0;0;0
82817;PMS5003;72572;46.824;-71.222;2024-02-14T09:56:35;0;0;0
82817;PMS5003;72572;46.824;-71.222;2024-02-14T09:59:03;0;0;0
82817;PMS5003;72572;46.824;-71.222;2024-02-14T10:01:27;0;0;0
82817;PMS5003;72572;46.824;-71.222;2024-02-14T10:03:54;0;0;0
82817;PMS5003;72572;46.824;-71.222;2024-02-14T10:06:19;0;0;0
82817;PMS5003;72572;46.824;-71.222;2024-02-14T10:08:42;0;0;0
82817;PMS5003;72572;46.824;-71.222;2024-02-14T10:11:08;0;0;0
82817;PMS5003;72572;46.824;-71.222;2024-02-14T10:13:34;0;0;0
82817;PMS5003;72572;46.824;-71.222;2024-02-14T10:15:59;0;0;0
82817;PMS5003;72572;46.824;-71.222;2024-02-14T10:18:27;0;0;0
82817;PMS5003;72572;46.824;-71.222;2024-02-14T10:20:55;0;0;0
82817;PMS5003;72572;46.824;-71.222;2024-02-14T10:23:15;0;0;0
82817;PMS5003;72572;46.824;-71.222;2024-02-14T10:25:43;0;0;0
82817;PMS5003;72572;46.824;-71.222;2024-02-14T10:28:08;0.65;0;0
82817;PMS5003;72572;46.824;-71.222;2024-02-14T10:30:31;0;0;0
82817;PMS5003;72572;46.824;-71.222;2024-02-14T10:32:58;0;0;0
82817;PMS5003;72572;46.824;-71.222;2024-02-14T10:35:22;0;0;0
82817;PMS5003;72572;46.824;-71.222;2024-02-14T10:37:49;0;0;0
82817;PMS5003;72572;46.824;-71.222;2024-02-14T10:40:15;0;0;0
82817;PMS5003;72572;46.824;-71.222;2024-02-14T10:42:39;0;0;0
82817;PMS5003;72572;46.824;-71.222;2024-02-14T10:45:05;0;0;0
82817;PMS5003;72572;46.824;-71.222;2024-02-14T10:47:30;0.38;0;0
82817;PMS5003;72572;46.824;-71.222;2024-02-14T10:49:55;0;0;0
82817;PMS5003;72572;46.824;-71.222;2024-02-14T10:52:22;0.33;0;0
82817;PMS5003;72572;46.824;-71.222;2024-02-14T10:54:47;0;0;0
82817;PMS5003;72572;46.824;-71.222;2024-02-14T10:57:10;0.05;0;0
82817;PMS5003;72572;46.824;-71.222;2024-02-14T10:59:36;0.65;0;0
82817;PMS5003;72572;46.824;-71.222;2024-02-14T11:02:04;0;0;0
82817;PMS5003;72572;46.824;-71.222;2024-02-14T11:04:26;0.2;0.2;0
82817;PMS5003;72572;46.824;-71.222;2024-02-14T11:06:53;0;0;0
82817;PMS5003;72572;46.824;-71.222;2024-02-14T11:09:19;0;0;0
82817;PMS5003;72572;46.824;-71.222;2024-02-14T11:11:45;0;0;0
82817;PMS5003;72572;46.824;-71.222;2024-02-14T11:14:08;0;0;0
82817;PMS5003;72572;46.824;-71.222;2024-02-14T11:16:33;0.2;0.2;0.2
82817;PMS5003;72572;46.824;-71.222;2024-02-14T11:19:07;0;0;0
82817;PMS5003;72572;46.824;-71.222;2024-02-14T11:21:28;0;0;0
82817;PMS5003;72572;46.824;-71.222;2024-02-14T11:23:53;0;0;0
82817;PMS5003;72572;46.824;-71.222;2024-02-14T11:26:17;0;0;0
82817;PMS5003;72572;46.824;-71.222;2024-02-14T11:28:40;0.85;0.65;0
82817;PMS5003;72572;46.824;-71.222;2024-02-14T11:31:07;0.65;0;0
82817;PMS5003;72572;46.824;-71.222;2024-02-14T11:33:32;2;1.65;0
82817;PMS5003;72572;46.824;-71.222;2024-02-14T11:35:57;0.5;0.5;0
82817;PMS5003;72572;46.824;-71.222;2024-02-14T11:38:24;0.8;0;0
82817;PMS5003;72572;46.824;-71.222;2024-02-14T11:40:48;0;0;0
82817;PMS5003;72572;46.824;-71.222;2024-02-14T11:43:14;0;0;0
82817;PMS5003;72572;46.824;-71.222;2024-02-14T11:45:39;0;0;0
82817;PMS5003;72572;46.824;-71.222;2024-02-14T11:48:03;0.1;0.1;0
82817;PMS5003;72572;46.824;-71.222;2024-02-14T11:50:30;0;0;0
82817;PMS5003;72572;46.824;-71.222;2024-02-14T11:52:53;0.5;0.5;0
82817;PMS5003;72572;46.824;-71.222;2024-02-14T11:55:26;0.95;0;0
82817;PMS5003;72572;46.824;-71.222;2024-02-14T11:57:44;0;0;0
82817;PMS5003;72572;46.824;-71.222;2024-02-14T12:00:11;0;0;0
82817;PMS5003;72572;46.824;-71.222;2024-02-14T12:02:35;1.42;1;0
82817;PMS5003;72572;46.824;-71.222;2024-02-14T12:05:02;0;0;0
82817;PMS5003;72572;46.824;-71.222;2024-02-14T12:07:25;0.05;0.05;0
82817;PMS5003;72572;46.824;-71.222;2024-02-14T12:09:51;0.5;0;0
82817;PMS5003;72572;46.824;-71.222;2024-02-14T12:12:18;0.05;0.05;0
82817;PMS5003;72572;46.824;-71.222;2024-02-14T12:14:43;0;0;0
82817;PMS5003;72572;46.824;-71.222;2024-02-14T12:17:09;0;0;0
82817;PMS5003;72572;46.824;-71.222;2024-02-14T12:19:34;1.2;1;0.5
82817;PMS5003;72572;46.824;-71.222;2024-02-14T12:21:58;0.35;0.35;0
82817;PMS5003;72572;46.824;-71.222;2024-02-14T12:24:23;0.74;0.63;0
82817;PMS5003;72572;46.824;-71.222;2024-02-14T12:26:48;3;0.05;0
82817;PMS5003;72572;46.824;-71.222;2024-02-14T12:29:16;3.37;1.74;0.37
82817;PMS5003;72572;46.824;-71.222;2024-02-14T12:31:40;0.79;0.79;0
82817;PMS5003;72572;46.824;-71.222;2024-02-14T12:34:05;1;0;0
82817;PMS5003;72572;46.824;-71.222;2024-02-14T12:36:30;0;0;0
82817;PMS5003;72572;46.824;-71.222;2024-02-14T12:38:58;3.16;1.16;0.05
82817;PMS5003;72572;46.824;-71.222;2024-02-14T12:41:22;0.47;0.05;0
82817;PMS5003;72572;46.824;-71.222;2024-02-14T12:43:47;0.32;0.05;0
82817;PMS5003;72572;46.824;-71.222;2024-02-14T12:46:11;2.26;1;0.63
82817;PMS5003;72572;46.824;-71.222;2024-02-14T12:48:38;1;1;0
82817;PMS5003;72572;46.824;-71.222;2024-02-14T12:51:04;0.75;0;0
82817;PMS5003;72572;46.824;-71.222;2024-02-14T12:53:29;1.16;0.79;0.11
82817;PMS5003;72572;46.824;-71.222;2024-02-14T12:55:55;2;0.63;0
82817;PMS5003;72572;46.824;-71.222;2024-02-14T12:58:19;1.05;1.05;0.47
82817;PMS5003;72572;46.824;-71.222;2024-02-14T13:00:44;1.68;1.37;0.21
82817;PMS5003;72572;46.824;-71.222;2024-02-14T13:03:08;3.16;1.74;1
82817;PMS5003;72572;46.824;-71.222;2024-02-14T13:05:34;3;1.21;0
82817;PMS5003;72572;46.824;-71.222;2024-02-14T13:08:01;0.3;0;0
82817;PMS5003;72572;46.824;-71.222;2024-02-14T13:10:27;1.53;1.53;0.68
82817;PMS5003;72572;46.824;-71.222;2024-02-14T13:12:51;0.63;0.05;0.05
82817;PMS5003;72572;46.824;-71.222;2024-02-14T13:15:17;0;0;0
82817;PMS5003;72572;46.824;-71.222;2024-02-14T13:17:41;0.89;0.05;0
82817;PMS5003;72572;46.824;-71.222;2024-02-14T13:20:09;0.15;0.05;0
82817;PMS5003;72572;46.824;-71.222;2024-02-14T13:22:33;2;2;0.53
82817;PMS5003;72572;46.824;-71.222;2024-02-14T13:24:59;1;1;0
82817;PMS5003;72572;46.824;-71.222;2024-02-14T13:27:24;2.58;2.58;2.37
82817;PMS5003;72572;46.824;-71.222;2024-02-14T13:29:48;1;0;0
82817;PMS5003;72572;46.824;-71.222;2024-02-14T13:32:14;0;0;0
82817;PMS5003;72572;46.824;-71.222;2024-02-14T13:34:38;0.53;0;0
82817;PMS5003;72572;46.824;-71.222;2024-02-14T13:37:03;0;0;0
82817;PMS5003;72572;46.824;-71.222;2024-02-14T13:39:31;0;0;0
82817;PMS5003;72572;46.824;-71.222;2024-02-14T13:41:55;1.7;0;0
82817;PMS5003;72572;46.824;-71.222;2024-02-14T13:44:20;0;0;0
82817;PMS5003;72572;46.824;-71.222;2024-02-14T13:46:46;0;0;0
82817;PMS5003;72572;46.824;-71.222;2024-02-14T13:49:10;0.95;0;0
82817;PMS5003;72572;46.824;-71.222;2024-02-14T13:51:37;0;0;0
82817;PMS5003;72572;46.824;-71.222;2024-02-14T13:54:03;0.7;0.7;0
82817;PMS5003;72572;46.824;-71.222;2024-02-14T13:56:28;0;0;0
82817;PMS5003;72572;46.824;-71.222;2024-02-14T13:58:54;0.33;0;0
82817;PMS5003;72572;46.824;-71.222;2024-02-14T14:01:18;0;0;0
82817;PMS5003;72572;46.824;-71.222;2024-02-14T14:03:44;2.9;1;0
82817;PMS5003;72572;46.824;-71.222;2024-02-14T14:06:08;1.15;1.15;0.35
82817;PMS5003;72572;46.824;-71.222;2024-02-14T14:08:35;2.58;0;0
82817;PMS5003;72572;46.824;-71.222;2024-02-14T14:10:58;0.32;0.21;0
82817;PMS5003;72572;46.824;-71.222;2024-02-14T14:13:24;1.1;1;0
82817;PMS5003;72572;46.824;-71.222;2024-02-14T14:15:52;0.24;0.1;0
82817;PMS5003;72572;46.824;-71.222;2024-02-14T14:18:15;0;0;0
82817;PMS5003;72572;46.824;-71.222;2024-02-14T14:20:41;0.05;0;0
82817;PMS5003;72572;46.824;-71.222;2024-02-14T14:23:07;0;0;0
82817;PMS5003;72572;46.824;-71.222;2024-02-14T14:25:31;0.65;0;0
82817;PMS5003;72572;46.824;-71.222;2024-02-14T14:27:57;0;0;0
82817;PMS5003;72572;46.824;-71.222;2024-02-14T14:30:23;0.95;0;0
82817;PMS5003;72572;46.824;-71.222;2024-02-14T14:32:48;0.86;0;0
82817;PMS5003;72572;46.824;-71.222;2024-02-14T14:35:14;0;0;0
82817;PMS5003;72572;46.824;-71.222;2024-02-14T14:37:37;0;0;0
82817;PMS5003;72572;46.824;-71.222;2024-02-14T14:40:06;0;0;0
82817;PMS5003;72572;46.824;-71.222;2024-02-14T14:42:30;0.35;0.35;0
82817;PMS5003;72572;46.824;-71.222;2024-02-14T14:44:55;0.4;0.4;0
82817;PMS5003;72572;46.824;-71.222;2024-02-14T14:47:21;0;0;0
82817;PMS5003;72572;46.824;-71.222;2024-02-14T14:49:47;0;0;0
82817;PMS5003;72572;46.824;-71.222;2024-02-14T14:52:10;0.8;0;0
82817;PMS5003;72572;46.824;-71.222;2024-02-14T14:54:37;0;0;0
82817;PMS5003;72572;46.824;-71.222;2024-02-14T14:57:04;0;0;0
82817;PMS5003;72572;46.824;-71.222;2024-02-14T14:59:26;0;0;0
82817;PMS5003;72572;46.824;-71.222;2024-02-14T15:01:54;0;0;0
82817;PMS5003;72572;46.824;-71.222;2024-02-14T15:04:16;0;0;0
82817;PMS5003;72572;46.824;-71.222;2024-02-14T15:06:44;0;0;0
82817;PMS5003;72572;46.824;-71.222;2024-02-14T15:09:10;0;0;0
82817;PMS5003;72572;46.824;-71.222;2024-02-14T15:11:33;0;0;0
82817;PMS5003;72572;46.824;-71.222;2024-02-14T15:13:59;0;0;0